sensor_id;sensor_type;location;lat;lon;timestamp;P1;durP1;ratioP1;P2;durP2;ratioP2
4023;SDS011;2026;51.002;13.668;2024-02-21T00:03:51;16.27;;;5.00;;
4023;SDS011;2026;51.002;13.668;2024-02-21T00:08:55;10.50;;;3.87;;
4023;SDS011;2026;51.002;13.668;2024-02-21T00:13:58;10.63;;;3.37;;
4023;SDS011;2026;51.002;13.668;2024-02-21T00:19:01;16.43;;;4.10;;
4023;SDS011;2026;51.002;13.668;2024-02-21T00:24:06;13.73;;;3.43;;
4023;SDS011;2026;51.002;13.668;2024-02-21T00:29:09;12.57;;;3.50;;
4023;SDS011;2026;51.002;13.668;2024-02-21T00:34:12;8.13;;;3.90;;
4023;SDS011;2026;51.002;13.668;2024-02-21T00:39:16;14.60;;;4.00;;
4023;SDS011;2026;51.002;13.668;2024-02-21T00:44:19;9.63;;;3.70;;
4023;SDS011;2026;51.002;13.668;2024-02-21T00:49:22;9.10;;;3.07;;
4023;SDS011;2026;51.002;13.668;2024-02-21T00:54:26;10.37;;;3.17;;
4023;SDS011;2026;51.002;13.668;2024-02-21T00:59:45;8.30;;;3.93;;
4023;SDS011;2026;51.002;13.668;2024-02-21T01:04:47;13.00;;;3.90;;
4023;SDS011;2026;51.002;13.668;2024-02-21T01:09:52;9.90;;;4.03;;
4023;SDS011;2026;51.002;13.668;2024-02-21T01:14:55;9.10;;;3.23;;
4023;SDS011;2026;51.002;13.668;2024-02-21T01:19:58;10.10;;;3.50;;
4023;SDS011;2026;51.002;13.668;2024-02-21T01:25:02;11.40;;;3.77;;
4023;SDS011;2026;51.002;13.668;2024-02-21T01:30:07;17.13;;;4.50;;
4023;SDS011;2026;51.002;13.668;2024-02-21T01:35:12;9.83;;;3.50;;
4023;SDS011;2026;51.002;13.668;2024-02-21T01:40:16;10.87;;;3.40;;
4023;SDS011;2026;51.002;13.668;2024-02-21T01:45:20;6.20;;;3.40;;
4023;SDS011;2026;51.002;13.668;2024-02-21T01:50:23;10.00;;;3.40;;
4023;SDS011;2026;51.002;13.668;2024-02-21T01:55:27;8.97;;;3.60;;
4023;SDS011;2026;51.002;13.668;2024-02-21T02:00:30;10.87;;;3.90;;
4023;SDS011;2026;51.002;13.668;2024-02-21T02:05:35;8.60;;;3.53;;
4023;SDS011;2026;51.002;13.668;2024-02-21T02:10:39;15.30;;;4.27;;
4023;SDS011;2026;51.002;13.668;2024-02-21T02:15:43;11.80;;;3.70;;
4023;SDS011;2026;51.002;13.668;2024-02-21T02:20:48;10.47;;;3.37;;
4023;SDS011;2026;51.002;13.668;2024-02-21T02:25:53;9.60;;;3.80;;
4023;SDS011;2026;51.002;13.668;2024-02-21T02:30:56;7.20;;;3.77;;
4023;SDS011;2026;51.002;13.668;2024-02-21T02:35:59;12.43;;;3.80;;
4023;SDS011;2026;51.002;13.668;2024-02-21T02:41:03;12.57;;;3.93;;
4023;SDS011;2026;51.002;13.668;2024-02-21T02:46:07;10.07;;;4.40;;
4023;SDS011;2026;51.002;13.668;2024-02-21T02:51:09;16.03;;;3.70;;
4023;SDS011;2026;51.002;13.668;2024-02-21T02:56:15;7.43;;;3.50;;
4023;SDS011;2026;51.002;13.668;2024-02-21T03:01:18;9.10;;;3.93;;
4023;SDS011;2026;51.002;13.668;2024-02-21T03:06:21;6.60;;;3.53;;
4023;SDS011;2026;51.002;13.668;2024-02-21T03:11:25;10.10;;;4.47;;
4023;SDS011;2026;51.002;13.668;2024-02-21T03:16:31;10.07;;;4.20;;
4023;SDS011;2026;51.002;13.668;2024-02-21T03:21:34;9.73;;;3.60;;
4023;SDS011;2026;51.002;13.668;2024-02-21T03:26:38;12.33;;;4.13;;
4023;SDS011;2026;51.002;13.668;2024-02-21T03:31:41;10.20;;;4.03;;
4023;SDS011;2026;51.002;13.668;2024-02-21T03:36:44;18.67;;;5.17;;
4023;SDS011;2026;51.002;13.668;2024-02-21T03:41:49;11.83;;;3.90;;
4023;SDS011;2026;51.002;13.668;2024-02-21T03:46:52;9.90;;;4.50;;
4023;SDS011;2026;51.002;13.668;2024-02-21T03:51:55;14.93;;;4.67;;
4023;SDS011;2026;51.002;13.668;2024-02-21T03:57:00;14.60;;;4.60;;
4023;SDS011;2026;51.002;13.668;2024-02-21T04:02:03;10.17;;;4.30;;
4023;SDS011;2026;51.002;13.668;2024-02-21T04:07:10;9.27;;;4.07;;
4023;SDS011;2026;51.002;13.668;2024-02-21T04:12:14;9.80;;;3.70;;
4023;SDS011;2026;51.002;13.668;2024-02-21T04:17:17;9.50;;;4.50;;
4023;SDS011;2026;51.002;13.668;2024-02-21T04:22:22;8.23;;;4.17;;
4023;SDS011;2026;51.002;13.668;2024-02-21T04:27:26;8.70;;;3.60;;
4023;SDS011;2026;51.002;13.668;2024-02-21T04:32:29;11.80;;;4.47;;
4023;SDS011;2026;51.002;13.668;2024-02-21T04:37:32;13.90;;;4.70;;
4023;SDS011;2026;51.002;13.668;2024-02-21T04:42:36;16.20;;;6.20;;
4023;SDS011;2026;51.002;13.668;2024-02-21T04:47:39;10.20;;;5.10;;
4023;SDS011;2026;51.002;13.668;2024-02-21T04:52:42;8.07;;;4.70;;
4023;SDS011;2026;51.002;13.668;2024-02-21T04:57:46;8.40;;;4.27;;
4023;SDS011;2026;51.002;13.668;2024-02-21T05:02:49;9.63;;;4.70;;
4023;SDS011;2026;51.002;13.668;2024-02-21T05:07:52;8.17;;;3.60;;
4023;SDS011;2026;51.002;13.668;2024-02-21T05:12:57;14.17;;;5.40;;
4023;SDS011;2026;51.002;13.668;2024-02-21T05:18:00;11.03;;;5.50;;
4023;SDS011;2026;51.002;13.668;2024-02-21T05:23:03;12.80;;;5.70;;
4023;SDS011;2026;51.002;13.668;2024-02-21T05:28:07;9.80;;;5.03;;
4023;SDS011;2026;51.002;13.668;2024-02-21T05:33:10;11.50;;;4.90;;
4023;SDS011;2026;51.002;13.668;2024-02-21T05:38:14;14.50;;;5.80;;
4023;SDS011;2026;51.002;13.668;2024-02-21T05:43:19;10.23;;;5.03;;
4023;SDS011;2026;51.002;13.668;2024-02-21T05:48:22;11.07;;;4.77;;
4023;SDS011;2026;51.002;13.668;2024-02-21T05:53:25;13.87;;;5.70;;
4023;SDS011;2026;51.002;13.668;2024-02-21T05:58:29;11.40;;;4.90;;
4023;SDS011;2026;51.002;13.668;2024-02-21T06:03:33;9.07;;;4.87;;
4023;SDS011;2026;51.002;13.668;2024-02-21T06:08:39;10.80;;;4.93;;
4023;SDS011;2026;51.002;13.668;2024-02-21T06:13:43;10.63;;;4.50;;
4023;SDS011;2026;51.002;13.668;2024-02-21T06:18:46;12.37;;;4.80;;
4023;SDS011;2026;51.002;13.668;2024-02-21T06:23:49;13.23;;;5.23;;
4023;SDS011;2026;51.002;13.668;2024-02-21T06:28:53;11.57;;;4.93;;
4023;SDS011;2026;51.002;13.668;2024-02-21T06:33:56;9.97;;;4.97;;
4023;SDS011;2026;51.002;13.668;2024-02-21T06:38:59;15.50;;;5.00;;
4023;SDS011;2026;51.002;13.668;2024-02-21T06:44:04;14.77;;;4.97;;
4023;SDS011;2026;51.002;13.668;2024-02-21T06:49:07;13.40;;;5.70;;
4023;SDS011;2026;51.002;13.668;2024-02-21T06:54:10;14.77;;;5.03;;
4023;SDS011;2026;51.002;13.668;2024-02-21T06:59:14;10.10;;;4.90;;
4023;SDS011;2026;51.002;13.668;2024-02-21T07:04:17;12.53;;;4.67;;
4023;SDS011;2026;51.002;13.668;2024-02-21T07:09:20;13.03;;;4.30;;
4023;SDS011;2026;51.002;13.668;2024-02-21T07:14:25;12.83;;;5.43;;
4023;SDS011;2026;51.002;13.668;2024-02-21T07:19:27;10.47;;;4.80;;
4023;SDS011;2026;51.002;13.668;2024-02-21T07:24:31;12.43;;;4.87;;
4023;SDS011;2026;51.002;13.668;2024-02-21T07:29:35;12.13;;;4.57;;
4023;SDS011;2026;51.002;13.668;2024-02-21T07:34:38;14.43;;;4.80;;
4023;SDS011;2026;51.002;13.668;2024-02-21T07:39:41;7.63;;;4.30;;
4023;SDS011;2026;51.002;13.668;2024-02-21T07:44:46;7.30;;;4.30;;
4023;SDS011;2026;51.002;13.668;2024-02-21T07:49:49;11.33;;;4.30;;
4023;SDS011;2026;51.002;13.668;2024-02-21T07:54:52;11.53;;;4.13;;
4023;SDS011;2026;51.002;13.668;2024-02-21T07:59:56;11.70;;;4.70;;
4023;SDS011;2026;51.002;13.668;2024-02-21T08:04:59;8.03;;;4.27;;
4023;SDS011;2026;51.002;13.668;2024-02-21T08:10:03;8.27;;;4.13;;
4023;SDS011;2026;51.002;13.668;2024-02-21T08:15:10;9.03;;;3.80;;
4023;SDS011;2026;51.002;13.668;2024-02-21T08:20:13;6.77;;;3.90;;
4023;SDS011;2026;51.002;13.668;2024-02-21T08:25:17;14.00;;;5.63;;
4023;SDS011;2026;51.002;13.668;2024-02-21T08:30:21;15.30;;;5.30;;
4023;SDS011;2026;51.002;13.668;2024-02-21T08:35:25;8.63;;;4.50;;
4023;SDS011;2026;51.002;13.668;2024-02-21T08:40:28;17.00;;;4.43;;
4023;SDS011;2026;51.002;13.668;2024-02-21T08:45:33;5.40;;;3.90;;
4023;SDS011;2026;51.002;13.668;2024-02-21T08:50:35;6.43;;;4.03;;
4023;SDS011;2026;51.002;13.668;2024-02-21T08:55:40;9.93;;;4.57;;
4023;SDS011;2026;51.002;13.668;2024-02-21T09:00:44;14.20;;;5.83;;
4023;SDS011;2026;51.002;13.668;2024-02-21T09:05:47;8.27;;;4.40;;
4023;SDS011;2026;51.002;13.668;2024-02-21T09:10:50;10.53;;;4.50;;
4023;SDS011;2026;51.002;13.668;2024-02-21T09:15:55;8.37;;;4.13;;
4023;SDS011;2026;51.002;13.668;2024-02-21T09:20:58;11.50;;;4.73;;
4023;SDS011;2026;51.002;13.668;2024-02-21T09:26:01;13.60;;;4.53;;
4023;SDS011;2026;51.002;13.668;2024-02-21T09:31:07;10.83;;;4.47;;
4023;SDS011;2026;51.002;13.668;2024-02-21T09:36:10;9.93;;;5.10;;
4023;SDS011;2026;51.002;13.668;2024-02-21T09:41:15;12.57;;;4.83;;
4023;SDS011;2026;51.002;13.668;2024-02-21T09:46:30;11.33;;;4.27;;
4023;SDS011;2026;51.002;13.668;2024-02-21T09:51:46;7.80;;;4.60;;
4023;SDS011;2026;51.002;13.668;2024-02-21T09:56:52;11.47;;;4.20;;
4023;SDS011;2026;51.002;13.668;2024-02-21T10:01:56;11.37;;;4.83;;
4023;SDS011;2026;51.002;13.668;2024-02-21T10:07:02;7.90;;;4.07;;
4023;SDS011;2026;51.002;13.668;2024-02-21T10:12:08;20.60;;;5.57;;
4023;SDS011;2026;51.002;13.668;2024-02-21T10:17:16;11.03;;;4.30;;
4023;SDS011;2026;51.002;13.668;2024-02-21T10:22:20;7.03;;;4.07;;
4023;SDS011;2026;51.002;13.668;2024-02-21T10:27:24;11.70;;;4.20;;
4023;SDS011;2026;51.002;13.668;2024-02-21T10:32:29;11.90;;;5.10;;
4023;SDS011;2026;51.002;13.668;2024-02-21T10:37:32;15.37;;;5.70;;
4023;SDS011;2026;51.002;13.668;2024-02-21T10:42:35;9.93;;;4.20;;
4023;SDS011;2026;51.002;13.668;2024-02-21T10:47:42;10.17;;;3.97;;
4023;SDS011;2026;51.002;13.668;2024-02-21T10:52:55;8.27;;;4.40;;
4023;SDS011;2026;51.002;13.668;2024-02-21T10:58:11;11.53;;;5.00;;
4023;SDS011;2026;51.002;13.668;2024-02-21T11:03:16;12.00;;;5.60;;
4023;SDS011;2026;51.002;13.668;2024-02-21T11:08:19;9.97;;;4.00;;
4023;SDS011;2026;51.002;13.668;2024-02-21T11:13:29;6.80;;;3.90;;
4023;SDS011;2026;51.002;13.668;2024-02-21T11:18:35;7.30;;;4.10;;
4023;SDS011;2026;51.002;13.668;2024-02-21T11:23:39;10.57;;;4.40;;
4023;SDS011;2026;51.002;13.668;2024-02-21T11:28:42;7.13;;;4.07;;
4023;SDS011;2026;51.002;13.668;2024-02-21T11:33:47;6.13;;;3.70;;
4023;SDS011;2026;51.002;13.668;2024-02-21T11:38:50;6.67;;;3.60;;
4023;SDS011;2026;51.002;13.668;2024-02-21T11:43:53;7.33;;;3.40;;
4023;SDS011;2026;51.002;13.668;2024-02-21T11:48:58;7.60;;;3.80;;
4023;SDS011;2026;51.002;13.668;2024-02-21T11:54:03;8.63;;;4.30;;
4023;SDS011;2026;51.002;13.668;2024-02-21T11:59:08;5.53;;;3.23;;
4023;SDS011;2026;51.002;13.668;2024-02-21T12:04:12;7.30;;;3.03;;
4023;SDS011;2026;51.002;13.668;2024-02-21T12:09:16;4.47;;;3.23;;
4023;SDS011;2026;51.002;13.668;2024-02-21T12:14:18;5.50;;;3.13;;
4023;SDS011;2026;51.002;13.668;2024-02-21T12:19:23;8.30;;;3.67;;
4023;SDS011;2026;51.002;13.668;2024-02-21T12:24:26;8.90;;;3.17;;
4023;SDS011;2026;51.002;13.668;2024-02-21T12:29:30;6.00;;;3.00;;
4023;SDS011;2026;51.002;13.668;2024-02-21T12:34:35;8.97;;;3.47;;
4023;SDS011;2026;51.002;13.668;2024-02-21T12:39:54;6.47;;;3.60;;
4023;SDS011;2026;51.002;13.668;2024-02-21T12:44:57;6.07;;;3.60;;
4023;SDS011;2026;51.002;13.668;2024-02-21T12:50:01;9.63;;;4.30;;
4023;SDS011;2026;51.002;13.668;2024-02-21T12:55:05;7.90;;;3.67;;
4023;SDS011;2026;51.002;13.668;2024-02-21T13:00:09;6.40;;;3.70;;
4023;SDS011;2026;51.002;13.668;2024-02-21T13:05:14;8.97;;;4.40;;
4023;SDS011;2026;51.002;13.668;2024-02-21T13:10:17;7.80;;;3.33;;
4023;SDS011;2026;51.002;13.668;2024-02-21T13:15:20;8.90;;;4.70;;
4023;SDS011;2026;51.002;13.668;2024-02-21T13:20:24;9.10;;;4.47;;
4023;SDS011;2026;51.002;13.668;2024-02-21T13:25:28;6.80;;;4.03;;
4023;SDS011;2026;51.002;13.668;2024-02-21T13:30:31;6.93;;;3.67;;
4023;SDS011;2026;51.002;13.668;2024-02-21T13:35:35;9.73;;;3.90;;
4023;SDS011;2026;51.002;13.668;2024-02-21T13:40:40;9.87;;;3.77;;
4023;SDS011;2026;51.002;13.668;2024-02-21T13:45:46;9.40;;;4.93;;
4023;SDS011;2026;51.002;13.668;2024-02-21T13:50:59;11.60;;;3.33;;
4023;SDS011;2026;51.002;13.668;2024-02-21T13:56:04;5.43;;;3.17;;
4023;SDS011;2026;51.002;13.668;2024-02-21T14:01:07;8.30;;;3.50;;
4023;SDS011;2026;51.002;13.668;2024-02-21T14:06:12;4.83;;;2.77;;
4023;SDS011;2026;51.002;13.668;2024-02-21T14:11:15;11.63;;;3.07;;
4023;SDS011;2026;51.002;13.668;2024-02-21T14:16:18;7.03;;;3.00;;
4023;SDS011;2026;51.002;13.668;2024-02-21T14:21:22;8.00;;;3.13;;
4023;SDS011;2026;51.002;13.668;2024-02-21T14:26:25;7.30;;;2.83;;
4023;SDS011;2026;51.002;13.668;2024-02-21T14:31:28;8.03;;;3.50;;
4023;SDS011;2026;51.002;13.668;2024-02-21T14:36:35;6.53;;;3.20;;
4023;SDS011;2026;51.002;13.668;2024-02-21T14:41:38;6.43;;;2.90;;
4023;SDS011;2026;51.002;13.668;2024-02-21T14:46:41;3.27;;;2.27;;
4023;SDS011;2026;51.002;13.668;2024-02-21T14:51:45;5.33;;;2.20;;
4023;SDS011;2026;51.002;13.668;2024-02-21T14:56:48;3.43;;;2.17;;
4023;SDS011;2026;51.002;13.668;2024-02-21T15:01:51;7.47;;;2.73;;
4023;SDS011;2026;51.002;13.668;2024-02-21T15:06:56;3.37;;;2.40;;
4023;SDS011;2026;51.002;13.668;2024-02-21T15:11:58;5.87;;;2.70;;
4023;SDS011;2026;51.002;13.668;2024-02-21T15:17:01;5.70;;;2.43;;
4023;SDS011;2026;51.002;13.668;2024-02-21T15:22:06;5.27;;;2.63;;
4023;SDS011;2026;51.002;13.668;2024-02-21T15:27:09;4.23;;;2.33;;
4023;SDS011;2026;51.002;13.668;2024-02-21T15:32:12;7.90;;;3.70;;
4023;SDS011;2026;51.002;13.668;2024-02-21T15:37:17;3.50;;;2.70;;
4023;SDS011;2026;51.002;13.668;2024-02-21T15:42:19;7.10;;;4.20;;
4023;SDS011;2026;51.002;13.668;2024-02-21T15:47:23;5.70;;;2.50;;
4023;SDS011;2026;51.002;13.668;2024-02-21T15:52:27;4.40;;;2.67;;
4023;SDS011;2026;51.002;13.668;2024-02-21T15:57:30;5.60;;;2.70;;
4023;SDS011;2026;51.002;13.668;2024-02-21T16:02:33;6.40;;;3.50;;
4023;SDS011;2026;51.002;13.668;2024-02-21T16:07:38;6.00;;;3.83;;
4023;SDS011;2026;51.002;13.668;2024-02-21T16:12:41;10.60;;;3.50;;
4023;SDS011;2026;51.002;13.668;2024-02-21T16:17:44;7.60;;;4.47;;
4023;SDS011;2026;51.002;13.668;2024-02-21T16:22:48;9.20;;;5.10;;
4023;SDS011;2026;51.002;13.668;2024-02-21T16:27:51;5.30;;;2.63;;
4023;SDS011;2026;51.002;13.668;2024-02-21T16:32:54;6.63;;;3.47;;
4023;SDS011;2026;51.002;13.668;2024-02-21T16:37:59;10.50;;;3.27;;
4023;SDS011;2026;51.002;13.668;2024-02-21T16:43:04;7.60;;;4.23;;
4023;SDS011;2026;51.002;13.668;2024-02-21T16:48:07;7.27;;;3.67;;
4023;SDS011;2026;51.002;13.668;2024-02-21T16:53:12;6.37;;;4.77;;
4023;SDS011;2026;51.002;13.668;2024-02-21T16:58:15;8.03;;;3.43;;
4023;SDS011;2026;51.002;13.668;2024-02-21T17:03:18;9.83;;;3.47;;
4023;SDS011;2026;51.002;13.668;2024-02-21T17:08:24;7.20;;;3.03;;
4023;SDS011;2026;51.002;13.668;2024-02-21T17:13:27;4.53;;;3.40;;
4023;SDS011;2026;51.002;13.668;2024-02-21T17:18:30;7.13;;;4.00;;
4023;SDS011;2026;51.002;13.668;2024-02-21T17:23:35;3.80;;;2.93;;
4023;SDS011;2026;51.002;13.668;2024-02-21T17:28:37;6.80;;;2.73;;
4023;SDS011;2026;51.002;13.668;2024-02-21T17:33:41;5.33;;;3.50;;
4023;SDS011;2026;51.002;13.668;2024-02-21T17:38:45;5.40;;;3.17;;
4023;SDS011;2026;51.002;13.668;2024-02-21T17:43:49;4.13;;;2.97;;
4023;SDS011;2026;51.002;13.668;2024-02-21T17:48:53;6.90;;;4.00;;
4023;SDS011;2026;51.002;13.668;2024-02-21T17:53:57;6.07;;;3.70;;
4023;SDS011;2026;51.002;13.668;2024-02-21T17:59:00;8.03;;;3.40;;
4023;SDS011;2026;51.002;13.668;2024-02-21T18:04:04;6.00;;;4.03;;
4023;SDS011;2026;51.002;13.668;2024-02-21T18:09:08;8.43;;;3.70;;
4023;SDS011;2026;51.002;13.668;2024-02-21T18:14:11;6.03;;;3.60;;
4023;SDS011;2026;51.002;13.668;2024-02-21T18:19:14;7.57;;;4.40;;
4023;SDS011;2026;51.002;13.668;2024-02-21T18:24:22;8.50;;;4.90;;
4023;SDS011;2026;51.002;13.668;2024-02-21T18:29:25;10.63;;;4.93;;
4023;SDS011;2026;51.002;13.668;2024-02-21T18:34:40;8.73;;;6.13;;
4023;SDS011;2026;51.002;13.668;2024-02-21T18:39:44;10.07;;;6.07;;
4023;SDS011;2026;51.002;13.668;2024-02-21T18:44:48;12.00;;;7.57;;
4023;SDS011;2026;51.002;13.668;2024-02-21T18:49:51;9.10;;;6.17;;
4023;SDS011;2026;51.002;13.668;2024-02-21T18:54:56;15.73;;;9.30;;
4023;SDS011;2026;51.002;13.668;2024-02-21T18:59:59;19.00;;;10.90;;
4023;SDS011;2026;51.002;13.668;2024-02-21T19:05:08;17.90;;;10.50;;
4023;SDS011;2026;51.002;13.668;2024-02-21T19:10:13;12.87;;;8.83;;
4023;SDS011;2026;51.002;13.668;2024-02-21T19:15:16;16.40;;;11.47;;
4023;SDS011;2026;51.002;13.668;2024-02-21T19:20:19;10.90;;;8.23;;
4023;SDS011;2026;51.002;13.668;2024-02-21T19:25:23;12.00;;;8.00;;
4023;SDS011;2026;51.002;13.668;2024-02-21T19:30:27;10.37;;;7.40;;
4023;SDS011;2026;51.002;13.668;2024-02-21T19:35:30;11.00;;;6.70;;
4023;SDS011;2026;51.002;13.668;2024-02-21T19:40:34;10.00;;;6.90;;
4023;SDS011;2026;51.002;13.668;2024-02-21T19:45:37;8.43;;;5.10;;
4023;SDS011;2026;51.002;13.668;2024-02-21T19:50:40;10.37;;;8.27;;
4023;SDS011;2026;51.002;13.668;2024-02-21T19:55:45;20.97;;;11.80;;
4023;SDS011;2026;51.002;13.668;2024-02-21T20:00:48;19.47;;;11.20;;
4023;SDS011;2026;51.002;13.668;2024-02-21T20:05:50;22.63;;;12.90;;
4023;SDS011;2026;51.002;13.668;2024-02-21T20:10:55;18.37;;;12.00;;
4023;SDS011;2026;51.002;13.668;2024-02-21T20:15:59;19.53;;;10.80;;
4023;SDS011;2026;51.002;13.668;2024-02-21T20:21:02;14.47;;;8.50;;
4023;SDS011;2026;51.002;13.668;2024-02-21T20:26:08;16.60;;;9.50;;
4023;SDS011;2026;51.002;13.668;2024-02-21T20:31:11;8.93;;;6.23;;
4023;SDS011;2026;51.002;13.668;2024-02-21T20:36:20;9.60;;;6.40;;
4023;SDS011;2026;51.002;13.668;2024-02-21T20:41:24;6.97;;;5.20;;
4023;SDS011;2026;51.002;13.668;2024-02-21T20:46:27;6.97;;;5.00;;
4023;SDS011;2026;51.002;13.668;2024-02-21T20:51:30;9.93;;;5.00;;
4023;SDS011;2026;51.002;13.668;2024-02-21T20:56:35;11.30;;;4.93;;
4023;SDS011;2026;51.002;13.668;2024-02-21T21:01:38;4.37;;;3.47;;
4023;SDS011;2026;51.002;13.668;2024-02-21T21:06:51;4.47;;;3.30;;
4023;SDS011;2026;51.002;13.668;2024-02-21T21:11:55;4.20;;;2.97;;
4023;SDS011;2026;51.002;13.668;2024-02-21T21:16:59;5.33;;;2.87;;
4023;SDS011;2026;51.002;13.668;2024-02-21T21:22:05;4.13;;;2.77;;
4023;SDS011;2026;51.002;13.668;2024-02-21T21:27:10;3.67;;;2.23;;
4023;SDS011;2026;51.002;13.668;2024-02-21T21:32:15;2.90;;;2.13;;
4023;SDS011;2026;51.002;13.668;2024-02-21T21:37:18;2.87;;;1.90;;
4023;SDS011;2026;51.002;13.668;2024-02-21T21:42:23;6.23;;;3.20;;
4023;SDS011;2026;51.002;13.668;2024-02-21T21:47:26;4.80;;;3.70;;
4023;SDS011;2026;51.002;13.668;2024-02-21T21:52:29;8.17;;;5.17;;
4023;SDS011;2026;51.002;13.668;2024-02-21T21:57:34;6.40;;;3.67;;
4023;SDS011;2026;51.002;13.668;2024-02-21T22:02:37;8.80;;;3.00;;
4023;SDS011;2026;51.002;13.668;2024-02-21T22:07:40;3.70;;;2.80;;
4023;SDS011;2026;51.002;13.668;2024-02-21T22:12:44;3.30;;;2.60;;
4023;SDS011;2026;51.002;13.668;2024-02-21T22:17:47;3.53;;;2.10;;
4023;SDS011;2026;51.002;13.668;2024-02-21T22:22:50;7.17;;;4.27;;
4023;SDS011;2026;51.002;13.668;2024-02-21T22:27:55;5.77;;;3.27;;
4023;SDS011;2026;51.002;13.668;2024-02-21T22:32:58;5.47;;;3.40;;
4023;SDS011;2026;51.002;13.668;2024-02-21T22:38:01;4.07;;;2.47;;
4023;SDS011;2026;51.002;13.668;2024-02-21T22:43:07;1.63;;;1.53;;
4023;SDS011;2026;51.002;13.668;2024-02-21T22:48:10;5.00;;;1.53;;
4023;SDS011;2026;51.002;13.668;2024-02-21T22:53:13;1.87;;;1.40;;
4023;SDS011;2026;51.002;13.668;2024-02-21T22:58:18;4.43;;;1.40;;
4023;SDS011;2026;51.002;13.668;2024-02-21T23:03:23;3.73;;;1.50;;
4023;SDS011;2026;51.002;13.668;2024-02-21T23:08:26;3.23;;;1.70;;
4023;SDS011;2026;51.002;13.668;2024-02-21T23:13:30;2.10;;;1.30;;
4023;SDS011;2026;51.002;13.668;2024-02-21T23:18:34;1.70;;;1.20;;
4023;SDS011;2026;51.002;13.668;2024-02-21T23:23:38;1.70;;;1.10;;
4023;SDS011;2026;51.002;13.668;2024-02-21T23:28:42;1.27;;;1.17;;
4023;SDS011;2026;51.002;13.668;2024-02-21T23:33:45;2.20;;;1.53;;
4023;SDS011;2026;51.002;13.668;2024-02-21T23:38:48;2.80;;;1.50;;
4023;SDS011;2026;51.002;13.668;2024-02-21T23:43:53;2.40;;;1.20;;
4023;SDS011;2026;51.002;13.668;2024-02-21T23:49:00;1.50;;;0.90;;
4023;SDS011;2026;51.002;13.668;2024-02-21T23:54:03;1.63;;;0.93;;
4023;SDS011;2026;51.002;13.668;2024-02-21T23:59:08;1.50;;;0.93;;
